sensor_id;sensor_type;location;lat;lon;timestamp;temperature;humidity
18085;DHT22;9169;44.492;11.372;2023-05-13T00:01:25;16.80;67.70
18085;DHT22;9169;44.492;11.372;2023-05-13T00:03:54;16.90;67.70
18085;DHT22;9169;44.492;11.372;2023-05-13T00:06:22;16.80;67.50
18085;DHT22;9169;44.492;11.372;2023-05-13T00:08:51;16.80;67.50
18085;DHT22;9169;44.492;11.372;2023-05-13T00:11:19;16.80;67.70
18085;DHT22;9169;44.492;11.372;2023-05-13T00:13:48;16.70;67.90
18085;DHT22;9169;44.492;11.372;2023-05-13T00:16:18;16.70;68.10
18085;DHT22;9169;44.492;11.372;2023-05-13T00:18:50;16.70;68.40
18085;DHT22;9169;44.492;11.372;2023-05-13T00:21:18;16.60;68.40
18085;DHT22;9169;44.492;11.372;2023-05-13T00:23:47;16.70;68.70
18085;DHT22;9169;44.492;11.372;2023-05-13T00:26:16;16.60;68.90
18085;DHT22;9169;44.492;11.372;2023-05-13T00:28:47;16.60;69.00
18085;DHT22;9169;44.492;11.372;2023-05-13T00:31:15;16.60;69.20
18085;DHT22;9169;44.492;11.372;2023-05-13T00:33:45;16.60;69.40
18085;DHT22;9169;44.492;11.372;2023-05-13T00:36:14;16.60;69.80
18085;DHT22;9169;44.492;11.372;2023-05-13T00:38:43;16.60;69.80
18085;DHT22;9169;44.492;11.372;2023-05-13T00:41:12;16.60;69.90
18085;DHT22;9169;44.492;11.372;2023-05-13T00:43:41;16.60;70.20
18085;DHT22;9169;44.492;11.372;2023-05-13T00:46:09;16.60;70.40
18085;DHT22;9169;44.492;11.372;2023-05-13T00:48:38;16.60;70.40
18085;DHT22;9169;44.492;11.372;2023-05-13T00:51:08;16.60;70.60
18085;DHT22;9169;44.492;11.372;2023-05-13T00:53:38;16.60;70.70
18085;DHT22;9169;44.492;11.372;2023-05-13T00:56:07;16.60;70.90
18085;DHT22;9169;44.492;11.372;2023-05-13T00:58:36;16.60;70.90
18085;DHT22;9169;44.492;11.372;2023-05-13T01:01:12;16.60;71.10
18085;DHT22;9169;44.492;11.372;2023-05-13T01:03:48;16.60;71.40
18085;DHT22;9169;44.492;11.372;2023-05-13T01:06:24;16.60;71.30
18085;DHT22;9169;44.492;11.372;2023-05-13T01:08:59;16.60;71.30
18085;DHT22;9169;44.492;11.372;2023-05-13T01:11:34;16.60;71.40
18085;DHT22;9169;44.492;11.372;2023-05-13T01:14:08;16.60;71.70
18085;DHT22;9169;44.492;11.372;2023-05-13T01:16:48;16.60;71.90
18085;DHT22;9169;44.492;11.372;2023-05-13T01:19:34;16.60;72.00
18085;DHT22;9169;44.492;11.372;2023-05-13T01:22:07;16.70;72.80
18085;DHT22;9169;44.492;11.372;2023-05-13T01:24:36;16.60;71.90
18085;DHT22;9169;44.492;11.372;2023-05-13T01:27:05;16.70;72.00
18085;DHT22;9169;44.492;11.372;2023-05-13T01:29:35;16.70;71.90
18085;DHT22;9169;44.492;11.372;2023-05-13T01:32:05;16.70;72.20
18085;DHT22;9169;44.492;11.372;2023-05-13T01:34:35;16.60;72.20
18085;DHT22;9169;44.492;11.372;2023-05-13T01:37:04;16.70;72.40
18085;DHT22;9169;44.492;11.372;2023-05-13T01:39:36;16.60;72.10
18085;DHT22;9169;44.492;11.372;2023-05-13T01:42:11;16.60;72.40
18085;DHT22;9169;44.492;11.372;2023-05-13T01:44:39;16.70;72.30
18085;DHT22;9169;44.492;11.372;2023-05-13T01:47:08;16.60;72.30
18085;DHT22;9169;44.492;11.372;2023-05-13T01:49:37;16.70;72.40
18085;DHT22;9169;44.492;11.372;2023-05-13T01:52:06;16.70;72.50
18085;DHT22;9169;44.492;11.372;2023-05-13T01:54:36;16.70;72.50
18085;DHT22;9169;44.492;11.372;2023-05-13T01:57:09;16.70;72.60
18085;DHT22;9169;44.492;11.372;2023-05-13T01:59:38;16.70;72.40
18085;DHT22;9169;44.492;11.372;2023-05-13T02:02:06;16.70;72.40
18085;DHT22;9169;44.492;11.372;2023-05-13T02:04:35;16.70;72.50
18085;DHT22;9169;44.492;11.372;2023-05-13T02:07:04;16.70;72.30
18085;DHT22;9169;44.492;11.372;2023-05-13T02:09:33;16.70;72.30
18085;DHT22;9169;44.492;11.372;2023-05-13T02:12:06;16.70;72.20
18085;DHT22;9169;44.492;11.372;2023-05-13T02:14:35;16.70;72.30
18085;DHT22;9169;44.492;11.372;2023-05-13T02:17:04;16.70;72.40
18085;DHT22;9169;44.492;11.372;2023-05-13T02:19:33;16.70;72.30
18085;DHT22;9169;44.492;11.372;2023-05-13T02:22:02;16.70;72.40
18085;DHT22;9169;44.492;11.372;2023-05-13T02:24:30;16.70;72.40
18085;DHT22;9169;44.492;11.372;2023-05-13T02:27:00;16.70;72.40
18085;DHT22;9169;44.492;11.372;2023-05-13T02:29:30;16.70;72.40
18085;DHT22;9169;44.492;11.372;2023-05-13T02:31:59;16.70;72.50
18085;DHT22;9169;44.492;11.372;2023-05-13T02:34:28;16.70;72.60
18085;DHT22;9169;44.492;11.372;2023-05-13T02:36:56;16.80;72.70
18085;DHT22;9169;44.492;11.372;2023-05-13T02:39:25;16.80;72.70
18085;DHT22;9169;44.492;11.372;2023-05-13T02:41:56;16.80;72.80
18085;DHT22;9169;44.492;11.372;2023-05-13T02:44:32;16.80;72.80
18085;DHT22;9169;44.492;11.372;2023-05-13T02:47:01;16.80;72.80
18085;DHT22;9169;44.492;11.372;2023-05-13T02:49:30;16.80;72.70
18085;DHT22;9169;44.492;11.372;2023-05-13T02:51:59;16.80;73.00
18085;DHT22;9169;44.492;11.372;2023-05-13T02:54:32;16.80;72.90
18085;DHT22;9169;44.492;11.372;2023-05-13T02:57:01;16.80;72.80
18085;DHT22;9169;44.492;11.372;2023-05-13T02:59:32;16.80;72.80
18085;DHT22;9169;44.492;11.372;2023-05-13T03:02:01;16.80;72.70
18085;DHT22;9169;44.492;11.372;2023-05-13T03:04:29;16.80;72.60
18085;DHT22;9169;44.492;11.372;2023-05-13T03:06:58;16.80;72.30
18085;DHT22;9169;44.492;11.372;2023-05-13T03:09:27;16.80;72.20
18085;DHT22;9169;44.492;11.372;2023-05-13T03:11:55;16.70;72.00
18085;DHT22;9169;44.492;11.372;2023-05-13T03:14:24;16.70;72.00
18085;DHT22;9169;44.492;11.372;2023-05-13T03:16:54;16.70;72.00
18085;DHT22;9169;44.492;11.372;2023-05-13T03:19:23;16.70;72.00
18085;DHT22;9169;44.492;11.372;2023-05-13T03:21:52;16.70;72.10
18085;DHT22;9169;44.492;11.372;2023-05-13T03:24:20;16.70;72.30
18085;DHT22;9169;44.492;11.372;2023-05-13T03:26:50;16.70;72.30
18085;DHT22;9169;44.492;11.372;2023-05-13T03:29:19;16.70;72.20
18085;DHT22;9169;44.492;11.372;2023-05-13T03:31:48;16.60;72.20
18085;DHT22;9169;44.492;11.372;2023-05-13T03:34:18;16.60;72.30
18085;DHT22;9169;44.492;11.372;2023-05-13T03:36:47;16.60;72.30
18085;DHT22;9169;44.492;11.372;2023-05-13T03:39:16;16.60;72.30
18085;DHT22;9169;44.492;11.372;2023-05-13T03:41:44;16.60;72.40
18085;DHT22;9169;44.492;11.372;2023-05-13T03:44:13;16.60;72.40
18085;DHT22;9169;44.492;11.372;2023-05-13T03:46:42;16.50;72.40
18085;DHT22;9169;44.492;11.372;2023-05-13T03:49:11;16.50;72.50
18085;DHT22;9169;44.492;11.372;2023-05-13T03:51:41;16.50;72.40
18085;DHT22;9169;44.492;11.372;2023-05-13T03:54:10;16.50;72.60
18085;DHT22;9169;44.492;11.372;2023-05-13T03:56:39;16.50;72.70
18085;DHT22;9169;44.492;11.372;2023-05-13T03:59:08;16.60;72.90
18085;DHT22;9169;44.492;11.372;2023-05-13T04:01:36;16.60;73.00
18085;DHT22;9169;44.492;11.372;2023-05-13T04:07:06;16.60;73.10
18085;DHT22;9169;44.492;11.372;2023-05-13T04:09:38;16.70;72.80
18085;DHT22;9169;44.492;11.372;2023-05-13T04:12:07;16.70;72.90
18085;DHT22;9169;44.492;11.372;2023-05-13T04:14:36;16.70;72.90
18085;DHT22;9169;44.492;11.372;2023-05-13T04:17:05;16.70;72.90
18085;DHT22;9169;44.492;11.372;2023-05-13T04:19:33;16.70;72.90
18085;DHT22;9169;44.492;11.372;2023-05-13T04:22:02;16.70;72.70
18085;DHT22;9169;44.492;11.372;2023-05-13T04:24:32;16.70;72.60
18085;DHT22;9169;44.492;11.372;2023-05-13T04:27:02;16.70;72.50
18085;DHT22;9169;44.492;11.372;2023-05-13T04:29:31;16.70;72.30
18085;DHT22;9169;44.492;11.372;2023-05-13T04:31:59;16.70;72.10
18085;DHT22;9169;44.492;11.372;2023-05-13T04:34:28;16.70;72.30
18085;DHT22;9169;44.492;11.372;2023-05-13T04:36:57;16.70;72.50
18085;DHT22;9169;44.492;11.372;2023-05-13T04:39:26;16.70;72.60
18085;DHT22;9169;44.492;11.372;2023-05-13T04:41:56;16.70;72.50
18085;DHT22;9169;44.492;11.372;2023-05-13T04:44:25;16.80;72.60
18085;DHT22;9169;44.492;11.372;2023-05-13T04:46:53;16.80;72.60
18085;DHT22;9169;44.492;11.372;2023-05-13T04:49:22;16.80;72.70
18085;DHT22;9169;44.492;11.372;2023-05-13T04:51:52;16.80;72.50
18085;DHT22;9169;44.492;11.372;2023-05-13T04:54:20;16.80;73.00
18085;DHT22;9169;44.492;11.372;2023-05-13T04:56:50;16.90;72.40
18085;DHT22;9169;44.492;11.372;2023-05-13T04:59:20;16.90;72.50
18085;DHT22;9169;44.492;11.372;2023-05-13T05:01:49;16.90;72.50
18085;DHT22;9169;44.492;11.372;2023-05-13T05:04:18;16.90;72.20
18085;DHT22;9169;44.492;11.372;2023-05-13T05:06:47;17.00;72.20
18085;DHT22;9169;44.492;11.372;2023-05-13T05:09:19;17.00;71.90
18085;DHT22;9169;44.492;11.372;2023-05-13T05:11:53;17.10;71.90
18085;DHT22;9169;44.492;11.372;2023-05-13T05:14:26;17.00;71.70
18085;DHT22;9169;44.492;11.372;2023-05-13T05:16:55;17.10;71.90
18085;DHT22;9169;44.492;11.372;2023-05-13T05:19:24;17.10;71.60
18085;DHT22;9169;44.492;11.372;2023-05-13T05:21:54;17.20;71.50
18085;DHT22;9169;44.492;11.372;2023-05-13T05:24:25;17.20;71.50
18085;DHT22;9169;44.492;11.372;2023-05-13T05:26:55;17.20;71.40
18085;DHT22;9169;44.492;11.372;2023-05-13T05:29:24;17.30;71.60
18085;DHT22;9169;44.492;11.372;2023-05-13T05:31:55;17.30;71.80
18085;DHT22;9169;44.492;11.372;2023-05-13T05:34:24;17.30;71.90
18085;DHT22;9169;44.492;11.372;2023-05-13T05:36:54;17.40;72.10
18085;DHT22;9169;44.492;11.372;2023-05-13T05:39:23;17.40;72.20
18085;DHT22;9169;44.492;11.372;2023-05-13T05:41:52;17.40;72.20
18085;DHT22;9169;44.492;11.372;2023-05-13T05:44:21;17.50;72.30
18085;DHT22;9169;44.492;11.372;2023-05-13T05:46:50;17.50;72.30
18085;DHT22;9169;44.492;11.372;2023-05-13T05:49:21;17.60;72.30
18085;DHT22;9169;44.492;11.372;2023-05-13T05:51:50;17.60;72.00
18085;DHT22;9169;44.492;11.372;2023-05-13T05:54:19;17.60;71.80
18085;DHT22;9169;44.492;11.372;2023-05-13T05:56:48;17.60;71.70
18085;DHT22;9169;44.492;11.372;2023-05-13T05:59:17;17.80;71.90
18085;DHT22;9169;44.492;11.372;2023-05-13T06:01:46;17.70;71.70
18085;DHT22;9169;44.492;11.372;2023-05-13T06:04:14;17.80;71.70
18085;DHT22;9169;44.492;11.372;2023-05-13T06:06:45;17.80;71.30
18085;DHT22;9169;44.492;11.372;2023-05-13T06:09:13;17.90;71.00
18085;DHT22;9169;44.492;11.372;2023-05-13T06:11:44;17.90;70.60
18085;DHT22;9169;44.492;11.372;2023-05-13T06:14:13;17.90;70.20
18085;DHT22;9169;44.492;11.372;2023-05-13T06:16:42;18.00;70.10
18085;DHT22;9169;44.492;11.372;2023-05-13T06:19:11;18.00;69.80
18085;DHT22;9169;44.492;11.372;2023-05-13T06:21:40;18.10;69.90
18085;DHT22;9169;44.492;11.372;2023-05-13T06:24:10;18.10;69.80
18085;DHT22;9169;44.492;11.372;2023-05-13T06:26:39;18.20;69.90
18085;DHT22;9169;44.492;11.372;2023-05-13T06:29:08;18.20;69.70
18085;DHT22;9169;44.492;11.372;2023-05-13T06:31:37;18.20;69.50
18085;DHT22;9169;44.492;11.372;2023-05-13T06:34:06;18.20;69.10
18085;DHT22;9169;44.492;11.372;2023-05-13T06:36:34;18.20;68.70
18085;DHT22;9169;44.492;11.372;2023-05-13T06:39:06;18.20;68.50
18085;DHT22;9169;44.492;11.372;2023-05-13T06:45:10;18.20;68.00
18085;DHT22;9169;44.492;11.372;2023-05-13T06:47:39;18.20;67.60
18085;DHT22;9169;44.492;11.372;2023-05-13T06:50:10;18.20;67.70
18085;DHT22;9169;44.492;11.372;2023-05-13T06:52:41;18.20;67.80
18085;DHT22;9169;44.492;11.372;2023-05-13T06:55:10;18.20;67.50
18085;DHT22;9169;44.492;11.372;2023-05-13T06:57:39;18.20;67.40
18085;DHT22;9169;44.492;11.372;2023-05-13T07:00:11;18.20;67.50
18085;DHT22;9169;44.492;11.372;2023-05-13T07:02:48;18.20;67.70
18085;DHT22;9169;44.492;11.372;2023-05-13T07:05:17;18.20;67.60
18085;DHT22;9169;44.492;11.372;2023-05-13T07:07:45;18.20;67.70
18085;DHT22;9169;44.492;11.372;2023-05-13T07:10:14;18.30;68.00
18085;DHT22;9169;44.492;11.372;2023-05-13T07:12:43;18.30;68.20
18085;DHT22;9169;44.492;11.372;2023-05-13T07:15:12;18.30;68.20
18085;DHT22;9169;44.492;11.372;2023-05-13T07:17:44;18.30;68.10
18085;DHT22;9169;44.492;11.372;2023-05-13T07:20:15;18.40;68.10
18085;DHT22;9169;44.492;11.372;2023-05-13T07:22:50;18.30;68.10
18085;DHT22;9169;44.492;11.372;2023-05-13T07:25:19;18.40;68.40
18085;DHT22;9169;44.492;11.372;2023-05-13T07:27:48;18.40;68.50
18085;DHT22;9169;44.492;11.372;2023-05-13T07:30:18;18.40;68.50
18085;DHT22;9169;44.492;11.372;2023-05-13T07:32:47;18.50;68.80
18085;DHT22;9169;44.492;11.372;2023-05-13T07:35:19;18.50;68.70
18085;DHT22;9169;44.492;11.372;2023-05-13T07:37:47;18.50;68.50
18085;DHT22;9169;44.492;11.372;2023-05-13T07:40:16;18.50;68.40
18085;DHT22;9169;44.492;11.372;2023-05-13T07:42:46;18.50;68.40
18085;DHT22;9169;44.492;11.372;2023-05-13T07:45:14;18.50;68.60
18085;DHT22;9169;44.492;11.372;2023-05-13T07:47:45;18.50;68.80
18085;DHT22;9169;44.492;11.372;2023-05-13T07:50:13;18.50;69.50
18085;DHT22;9169;44.492;11.372;2023-05-13T07:52:42;18.50;69.80
18085;DHT22;9169;44.492;11.372;2023-05-13T07:55:13;18.60;69.80
18085;DHT22;9169;44.492;11.372;2023-05-13T07:57:42;18.70;70.00
18085;DHT22;9169;44.492;11.372;2023-05-13T08:00:12;18.70;69.80
18085;DHT22;9169;44.492;11.372;2023-05-13T08:02:42;18.70;70.00
18085;DHT22;9169;44.492;11.372;2023-05-13T08:05:14;18.80;70.10
18085;DHT22;9169;44.492;11.372;2023-05-13T08:07:43;18.80;70.00
18085;DHT22;9169;44.492;11.372;2023-05-13T08:10:11;18.90;69.80
18085;DHT22;9169;44.492;11.372;2023-05-13T08:12:40;18.90;69.60
18085;DHT22;9169;44.492;11.372;2023-05-13T08:15:11;18.90;69.40
18085;DHT22;9169;44.492;11.372;2023-05-13T08:17:40;18.90;69.20
18085;DHT22;9169;44.492;11.372;2023-05-13T08:20:11;18.90;69.00
18085;DHT22;9169;44.492;11.372;2023-05-13T08:22:42;19.00;68.90
18085;DHT22;9169;44.492;11.372;2023-05-13T08:25:11;19.00;69.50
18085;DHT22;9169;44.492;11.372;2023-05-13T08:27:41;19.10;69.70
18085;DHT22;9169;44.492;11.372;2023-05-13T08:30:10;19.00;69.70
18085;DHT22;9169;44.492;11.372;2023-05-13T08:32:39;19.10;69.90
18085;DHT22;9169;44.492;11.372;2023-05-13T08:35:08;19.20;69.80
18085;DHT22;9169;44.492;11.372;2023-05-13T08:37:37;19.20;69.90
18085;DHT22;9169;44.492;11.372;2023-05-13T08:40:10;19.30;70.00
18085;DHT22;9169;44.492;11.372;2023-05-13T08:42:41;19.30;70.20
18085;DHT22;9169;44.492;11.372;2023-05-13T08:45:10;19.40;70.30
18085;DHT22;9169;44.492;11.372;2023-05-13T08:47:49;19.50;70.50
18085;DHT22;9169;44.492;11.372;2023-05-13T08:50:19;19.70;70.80
18085;DHT22;9169;44.492;11.372;2023-05-13T08:52:49;19.80;71.20
18085;DHT22;9169;44.492;11.372;2023-05-13T08:55:21;20.00;71.40
18085;DHT22;9169;44.492;11.372;2023-05-13T08:57:50;20.10;71.00
18085;DHT22;9169;44.492;11.372;2023-05-13T09:00:19;20.20;70.90
18085;DHT22;9169;44.492;11.372;2023-05-13T09:02:48;20.30;70.80
18085;DHT22;9169;44.492;11.372;2023-05-13T09:05:17;20.40;70.60
18085;DHT22;9169;44.492;11.372;2023-05-13T09:07:47;20.50;70.10
18085;DHT22;9169;44.492;11.372;2023-05-13T09:10:20;20.60;70.10
18085;DHT22;9169;44.492;11.372;2023-05-13T09:12:51;20.70;69.80
18085;DHT22;9169;44.492;11.372;2023-05-13T09:15:21;20.80;69.40
18085;DHT22;9169;44.492;11.372;2023-05-13T09:17:53;20.80;69.20
18085;DHT22;9169;44.492;11.372;2023-05-13T09:20:22;20.90;68.90
18085;DHT22;9169;44.492;11.372;2023-05-13T09:22:56;21.00;68.60
18085;DHT22;9169;44.492;11.372;2023-05-13T09:25:28;21.10;68.30
18085;DHT22;9169;44.492;11.372;2023-05-13T09:27:58;21.20;67.50
18085;DHT22;9169;44.492;11.372;2023-05-13T09:30:29;21.20;67.40
18085;DHT22;9169;44.492;11.372;2023-05-13T09:33:06;21.30;67.60
18085;DHT22;9169;44.492;11.372;2023-05-13T09:35:40;21.40;67.80
18085;DHT22;9169;44.492;11.372;2023-05-13T09:38:14;21.50;67.00
18085;DHT22;9169;44.492;11.372;2023-05-13T09:40:51;21.50;66.30
18085;DHT22;9169;44.492;11.372;2023-05-13T09:43:21;21.60;66.00
18085;DHT22;9169;44.492;11.372;2023-05-13T09:45:52;21.70;65.70
18085;DHT22;9169;44.492;11.372;2023-05-13T09:48:21;21.80;65.30
18085;DHT22;9169;44.492;11.372;2023-05-13T09:50:52;21.90;64.90
18085;DHT22;9169;44.492;11.372;2023-05-13T09:53:22;22.00;64.10
18085;DHT22;9169;44.492;11.372;2023-05-13T09:55:56;22.00;63.40
18085;DHT22;9169;44.492;11.372;2023-05-13T09:58:27;22.00;62.60
18085;DHT22;9169;44.492;11.372;2023-05-13T10:00:59;22.10;62.60
18085;DHT22;9169;44.492;11.372;2023-05-13T10:03:31;22.10;62.90
18085;DHT22;9169;44.492;11.372;2023-05-13T10:06:00;22.10;62.50
18085;DHT22;9169;44.492;11.372;2023-05-13T10:08:30;22.20;62.70
18085;DHT22;9169;44.492;11.372;2023-05-13T10:11:00;22.30;63.00
18085;DHT22;9169;44.492;11.372;2023-05-13T10:13:31;22.50;63.20
18085;DHT22;9169;44.492;11.372;2023-05-13T10:16:00;22.70;63.20
18085;DHT22;9169;44.492;11.372;2023-05-13T10:18:31;22.80;62.40
18085;DHT22;9169;44.492;11.372;2023-05-13T10:21:02;22.80;62.00
18085;DHT22;9169;44.492;11.372;2023-05-13T10:23:32;22.90;62.00
18085;DHT22;9169;44.492;11.372;2023-05-13T10:26:02;23.10;61.00
18085;DHT22;9169;44.492;11.372;2023-05-13T10:28:57;23.20;60.80
18085;DHT22;9169;44.492;11.372;2023-05-13T10:31:27;23.40;60.30
18085;DHT22;9169;44.492;11.372;2023-05-13T10:33:59;23.50;59.30
18085;DHT22;9169;44.492;11.372;2023-05-13T10:36:39;23.70;59.10
18085;DHT22;9169;44.492;11.372;2023-05-13T10:39:26;23.70;58.10
18085;DHT22;9169;44.492;11.372;2023-05-13T10:45:08;24.10;58.40
18085;DHT22;9169;44.492;11.372;2023-05-13T10:47:38;24.30;57.40
18085;DHT22;9169;44.492;11.372;2023-05-13T10:50:21;24.60;57.20
18085;DHT22;9169;44.492;11.372;2023-05-13T10:52:54;24.80;56.20
18085;DHT22;9169;44.492;11.372;2023-05-13T10:55:25;25.20;56.10
18085;DHT22;9169;44.492;11.372;2023-05-13T10:58:07;25.50;55.30
18085;DHT22;9169;44.492;11.372;2023-05-13T11:00:38;25.80;54.90
18085;DHT22;9169;44.492;11.372;2023-05-13T11:03:14;25.90;53.70
18085;DHT22;9169;44.492;11.372;2023-05-13T11:06:12;26.00;53.30
18085;DHT22;9169;44.492;11.372;2023-05-13T11:08:43;26.40;52.70
18085;DHT22;9169;44.492;11.372;2023-05-13T11:11:25;26.70;52.30
18085;DHT22;9169;44.492;11.372;2023-05-13T11:14:06;26.80;51.70
18085;DHT22;9169;44.492;11.372;2023-05-13T11:16:37;26.80;51.60
18085;DHT22;9169;44.492;11.372;2023-05-13T11:19:18;26.50;51.40
18085;DHT22;9169;44.492;11.372;2023-05-13T11:21:50;26.20;51.00
18085;DHT22;9169;44.492;11.372;2023-05-13T11:24:20;25.90;51.50
18085;DHT22;9169;44.492;11.372;2023-05-13T11:26:50;25.60;51.60
18085;DHT22;9169;44.492;11.372;2023-05-13T11:29:30;25.40;51.50
18085;DHT22;9169;44.492;11.372;2023-05-13T11:32:02;25.10;51.90
18085;DHT22;9169;44.492;11.372;2023-05-13T11:34:32;25.00;52.40
18085;DHT22;9169;44.492;11.372;2023-05-13T11:37:08;24.90;52.60
18085;DHT22;9169;44.492;11.372;2023-05-13T11:39:40;24.80;52.80
18085;DHT22;9169;44.492;11.372;2023-05-13T11:42:12;24.80;52.80
18085;DHT22;9169;44.492;11.372;2023-05-13T11:44:45;24.80;53.00
18085;DHT22;9169;44.492;11.372;2023-05-13T11:47:24;24.80;52.50
18085;DHT22;9169;44.492;11.372;2023-05-13T11:49:54;24.70;52.10
18085;DHT22;9169;44.492;11.372;2023-05-13T11:52:23;24.50;51.70
18085;DHT22;9169;44.492;11.372;2023-05-13T11:54:53;24.30;51.90
18085;DHT22;9169;44.492;11.372;2023-05-13T11:57:23;24.20;51.50
18085;DHT22;9169;44.492;11.372;2023-05-13T11:59:56;24.10;51.90
18085;DHT22;9169;44.492;11.372;2023-05-13T12:02:28;23.80;51.10
18085;DHT22;9169;44.492;11.372;2023-05-13T12:04:59;23.50;50.90
18085;DHT22;9169;44.492;11.372;2023-05-13T12:07:28;23.30;51.40
18085;DHT22;9169;44.492;11.372;2023-05-13T12:09:59;23.00;52.20
18085;DHT22;9169;44.492;11.372;2023-05-13T12:12:29;22.80;52.90
18085;DHT22;9169;44.492;11.372;2023-05-13T12:15:00;22.70;53.20
18085;DHT22;9169;44.492;11.372;2023-05-13T12:17:30;22.60;53.50
18085;DHT22;9169;44.492;11.372;2023-05-13T12:20:04;22.40;54.10
18085;DHT22;9169;44.492;11.372;2023-05-13T12:22:36;22.40;54.00
18085;DHT22;9169;44.492;11.372;2023-05-13T12:25:31;22.30;54.30
18085;DHT22;9169;44.492;11.372;2023-05-13T12:28:06;22.30;54.80
18085;DHT22;9169;44.492;11.372;2023-05-13T12:30:35;22.30;55.30
18085;DHT22;9169;44.492;11.372;2023-05-13T12:33:12;22.20;55.60
18085;DHT22;9169;44.492;11.372;2023-05-13T12:35:41;22.20;56.20
18085;DHT22;9169;44.492;11.372;2023-05-13T12:38:14;22.30;56.50
18085;DHT22;9169;44.492;11.372;2023-05-13T12:40:44;22.40;56.70
18085;DHT22;9169;44.492;11.372;2023-05-13T12:43:16;22.70;57.00
18085;DHT22;9169;44.492;11.372;2023-05-13T12:45:46;23.20;57.20
18085;DHT22;9169;44.492;11.372;2023-05-13T12:48:22;23.80;56.60
18085;DHT22;9169;44.492;11.372;2023-05-13T12:50:50;24.40;55.70
18085;DHT22;9169;44.492;11.372;2023-05-13T12:53:22;24.90;55.20
18085;DHT22;9169;44.492;11.372;2023-05-13T12:55:51;25.60;54.50
18085;DHT22;9169;44.492;11.372;2023-05-13T12:58:22;26.10;52.80
18085;DHT22;9169;44.492;11.372;2023-05-13T13:00:51;26.50;51.70
18085;DHT22;9169;44.492;11.372;2023-05-13T13:03:21;26.70;51.10
18085;DHT22;9169;44.492;11.372;2023-05-13T13:05:50;27.10;50.60
18085;DHT22;9169;44.492;11.372;2023-05-13T13:08:22;27.30;50.10
18085;DHT22;9169;44.492;11.372;2023-05-13T13:10:51;27.50;49.70
18085;DHT22;9169;44.492;11.372;2023-05-13T13:13:20;27.50;48.90
18085;DHT22;9169;44.492;11.372;2023-05-13T13:15:49;27.30;48.50
18085;DHT22;9169;44.492;11.372;2023-05-13T13:18:18;27.30;48.50
18085;DHT22;9169;44.492;11.372;2023-05-13T13:20:48;27.30;48.70
18085;DHT22;9169;44.492;11.372;2023-05-13T13:23:18;27.20;47.90
18085;DHT22;9169;44.492;11.372;2023-05-13T13:25:46;27.20;47.50
18085;DHT22;9169;44.492;11.372;2023-05-13T13:28:15;27.40;47.60
18085;DHT22;9169;44.492;11.372;2023-05-13T13:30:44;27.50;46.90
18085;DHT22;9169;44.492;11.372;2023-05-13T13:33:14;27.70;46.10
18085;DHT22;9169;44.492;11.372;2023-05-13T13:35:44;27.80;45.60
18085;DHT22;9169;44.492;11.372;2023-05-13T13:38:14;28.00;45.40
18085;DHT22;9169;44.492;11.372;2023-05-13T13:40:45;28.00;45.10
18085;DHT22;9169;44.492;11.372;2023-05-13T13:43:13;27.90;44.70
18085;DHT22;9169;44.492;11.372;2023-05-13T13:45:44;27.90;44.70
18085;DHT22;9169;44.492;11.372;2023-05-13T13:48:13;27.80;44.70
18085;DHT22;9169;44.492;11.372;2023-05-13T13:50:41;27.80;44.90
18085;DHT22;9169;44.492;11.372;2023-05-13T13:53:11;28.00;44.80
18085;DHT22;9169;44.492;11.372;2023-05-13T13:55:41;28.10;43.70
18085;DHT22;9169;44.492;11.372;2023-05-13T13:58:10;28.00;42.60
18085;DHT22;9169;44.492;11.372;2023-05-13T14:00:41;27.90;42.70
18085;DHT22;9169;44.492;11.372;2023-05-13T14:03:17;27.60;42.70
18085;DHT22;9169;44.492;11.372;2023-05-13T14:05:51;27.30;42.90
18085;DHT22;9169;44.492;11.372;2023-05-13T14:08:21;27.10;42.80
18085;DHT22;9169;44.492;11.372;2023-05-13T14:10:51;26.70;42.20
18085;DHT22;9169;44.492;11.372;2023-05-13T14:13:23;26.40;42.50
18085;DHT22;9169;44.492;11.372;2023-05-13T14:15:52;26.20;43.20
18085;DHT22;9169;44.492;11.372;2023-05-13T14:18:20;26.10;43.40
18085;DHT22;9169;44.492;11.372;2023-05-13T14:20:49;26.00;43.60
18085;DHT22;9169;44.492;11.372;2023-05-13T14:23:18;25.90;43.70
18085;DHT22;9169;44.492;11.372;2023-05-13T14:25:47;25.80;43.90
18085;DHT22;9169;44.492;11.372;2023-05-13T14:28:17;25.70;44.10
18085;DHT22;9169;44.492;11.372;2023-05-13T14:30:49;25.60;44.10
18085;DHT22;9169;44.492;11.372;2023-05-13T14:33:18;25.50;44.80
18085;DHT22;9169;44.492;11.372;2023-05-13T14:35:46;25.40;44.40
18085;DHT22;9169;44.492;11.372;2023-05-13T14:38:15;25.20;44.60
18085;DHT22;9169;44.492;11.372;2023-05-13T14:40:44;25.10;45.10
18085;DHT22;9169;44.492;11.372;2023-05-13T14:43:13;25.00;45.50
18085;DHT22;9169;44.492;11.372;2023-05-13T14:45:44;24.70;45.70
18085;DHT22;9169;44.492;11.372;2023-05-13T14:48:15;24.60;46.10
18085;DHT22;9169;44.492;11.372;2023-05-13T14:50:45;24.50;46.50
18085;DHT22;9169;44.492;11.372;2023-05-13T14:53:13;24.30;46.90
18085;DHT22;9169;44.492;11.372;2023-05-13T14:55:42;24.20;47.40
18085;DHT22;9169;44.492;11.372;2023-05-13T14:58:11;24.10;47.70
18085;DHT22;9169;44.492;11.372;2023-05-13T15:00:41;24.00;48.00
18085;DHT22;9169;44.492;11.372;2023-05-13T15:03:11;24.00;48.40
18085;DHT22;9169;44.492;11.372;2023-05-13T15:05:40;24.00;48.60
18085;DHT22;9169;44.492;11.372;2023-05-13T15:08:10;23.90;48.90
18085;DHT22;9169;44.492;11.372;2023-05-13T15:10:39;23.90;49.30
18085;DHT22;9169;44.492;11.372;2023-05-13T15:13:07;23.90;50.00
18085;DHT22;9169;44.492;11.372;2023-05-13T15:15:36;23.80;49.60
18085;DHT22;9169;44.492;11.372;2023-05-13T15:18:05;23.70;49.80
18085;DHT22;9169;44.492;11.372;2023-05-13T15:20:35;23.60;50.10
18085;DHT22;9169;44.492;11.372;2023-05-13T15:23:04;23.50;50.20
18085;DHT22;9169;44.492;11.372;2023-05-13T15:25:32;23.40;50.60
18085;DHT22;9169;44.492;11.372;2023-05-13T15:28:01;23.30;51.30
18085;DHT22;9169;44.492;11.372;2023-05-13T15:30:30;23.20;51.90
18085;DHT22;9169;44.492;11.372;2023-05-13T15:33:02;23.10;52.60
18085;DHT22;9169;44.492;11.372;2023-05-13T15:35:38;23.00;53.10
18085;DHT22;9169;44.492;11.372;2023-05-13T15:38:08;23.00;53.70
18085;DHT22;9169;44.492;11.372;2023-05-13T15:40:37;22.90;54.00
18085;DHT22;9169;44.492;11.372;2023-05-13T15:43:06;22.90;54.30
18085;DHT22;9169;44.492;11.372;2023-05-13T15:45:37;22.80;54.60
18085;DHT22;9169;44.492;11.372;2023-05-13T15:48:09;22.80;54.80
18085;DHT22;9169;44.492;11.372;2023-05-13T15:50:42;22.70;54.80
18085;DHT22;9169;44.492;11.372;2023-05-13T15:53:13;22.70;54.80
18085;DHT22;9169;44.492;11.372;2023-05-13T15:55:42;22.60;54.70
18085;DHT22;9169;44.492;11.372;2023-05-13T15:58:11;22.60;54.70
18085;DHT22;9169;44.492;11.372;2023-05-13T16:00:39;22.60;54.90